Hovedside
METAR-TAF:

METAR-TAF

Lufthavner :

Kajana lufthavn

Kajana, Finland

breddegrad: 64-17N, lengdegrad: 027-41E, høyde over havet: 143 m

Gjeldene værobservasjon

Denne rapporten ble laget for 16 minutter siden, klokken 04:50 UTC
Vind 7 kt fra Sør-sørvest, skiftende mellom Sør og Vest
Temperatur 9°C
Luftfuktighet 87%
Trykk 1001 hPa
Sikt 10 km eller mer
ingen skyer under 1500 m og ingen bygeskyer

METAR: EFKI 210450Z AUTO 21007KT 170V280 CAVOK 09/07 Q1001

Tid: 08:06 (05:06 UTC)

Varsel

Denne rapporten ble laget for 2 timer og 31 minutter siden, klokken 02:35 UTC
Varsel gyldig fra 21. klokken 03 UTC til 21. klokken 12 UTC
Vind 9 kt fra Sørvest
Sikt 10 km eller mer
ingen skyer under 1500 m og ingen bygeskyer
Midlertidig
fra 21. klokken 07 UTC til 21. klokken 12 UTC
Vind 13 kt fra Sør-sørvest med vindkast opp mot 25 kt

TAF: EFKI 210235Z 2103/2112 22009KT CAVOK TEMPO 2107/2112 21013G25KT

Værobservasjoner og værvarsel for over 4000 flyplasser (METAR- og TAF-rapporter).

Tilgjengelige stasjoner er representert av de røde og gule prikkene på kartet.

Hold musepekeren over prikken for å se navnet på stasjonen.

Klikk så for å se værobservasjoner og -varsler.

For å forandre kartet kan du klikke på den grønne knappen med svart kryss for å zoome inn, på den grønne knappen med strek for å zoome ut, eller på de grønne pilene for å se tilstøtende kart.


METAR-TAF: